sensor_id;sensor_type;location;lat;lon;timestamp;P1;durP1;ratioP1;P2;durP2;ratioP2
68995;SDS011;56056;48.990;12.146;2024-02-04T00:00:26;881.63;;;791.10;;
68995;SDS011;56056;48.990;12.146;2024-02-04T00:02:52;292.02;;;266.05;;
68995;SDS011;56056;48.990;12.146;2024-02-04T00:05:17;946.33;;;845.97;;
68995;SDS011;56056;48.990;12.146;2024-02-04T00:07:43;954.40;;;849.42;;
68995;SDS011;56056;48.990;12.146;2024-02-04T00:10:09;927.63;;;833.63;;
68995;SDS011;56056;48.990;12.146;2024-02-04T00:12:35;850.38;;;765.35;;
68995;SDS011;56056;48.990;12.146;2024-02-04T00:15:02;933.10;;;838.72;;
68995;SDS011;56056;48.990;12.146;2024-02-04T00:17:29;849.67;;;756.28;;
68995;SDS011;56056;48.990;12.146;2024-02-04T00:19:57;900.53;;;810.58;;
68995;SDS011;56056;48.990;12.146;2024-02-04T00:22:23;945.42;;;840.95;;
68995;SDS011;56056;48.990;12.146;2024-02-04T00:24:49;1041.93;;;916.10;;
68995;SDS011;56056;48.990;12.146;2024-02-04T00:27:14;918.60;;;824.58;;
68995;SDS011;56056;48.990;12.146;2024-02-04T00:29:40;1030.00;;;893.95;;
68995;SDS011;56056;48.990;12.146;2024-02-04T00:32:07;1031.78;;;903.17;;
68995;SDS011;56056;48.990;12.146;2024-02-04T00:34:33;979.40;;;877.67;;
68995;SDS011;56056;48.990;12.146;2024-02-04T00:36:58;969.47;;;870.63;;
68995;SDS011;56056;48.990;12.146;2024-02-04T00:39:25;1136.25;;;933.00;;
68995;SDS011;56056;48.990;12.146;2024-02-04T00:41:51;1081.00;;;929.63;;
68995;SDS011;56056;48.990;12.146;2024-02-04T00:44:16;964.42;;;857.63;;
68995;SDS011;56056;48.990;12.146;2024-02-04T00:46:42;915.00;;;820.95;;
68995;SDS011;56056;48.990;12.146;2024-02-04T00:49:09;1086.07;;;931.13;;
68995;SDS011;56056;48.990;12.146;2024-02-04T00:51:35;1088.80;;;930.60;;
68995;SDS011;56056;48.990;12.146;2024-02-04T00:54:00;982.35;;;871.00;;
68995;SDS011;56056;48.990;12.146;2024-02-04T00:56:26;1161.15;;;934.00;;
68995;SDS011;56056;48.990;12.146;2024-02-04T00:58:52;1083.78;;;923.58;;
68995;SDS011;56056;48.990;12.146;2024-02-04T01:01:17;1328.38;;;996.22;;
68995;SDS011;56056;48.990;12.146;2024-02-04T01:03:44;743.22;;;672.85;;
68995;SDS011;56056;48.990;12.146;2024-02-04T01:06:11;269.33;;;242.30;;
68995;SDS011;56056;48.990;12.146;2024-02-04T01:08:37;1040.03;;;928.88;;
68995;SDS011;56056;48.990;12.146;2024-02-04T01:11:03;1349.82;;;975.75;;
68995;SDS011;56056;48.990;12.146;2024-02-04T01:13:29;1029.97;;;894.53;;
68995;SDS011;56056;48.990;12.146;2024-02-04T01:15:55;662.20;;;600.88;;
68995;SDS011;56056;48.990;12.146;2024-02-04T01:18:20;1096.75;;;929.63;;
68995;SDS011;56056;48.990;12.146;2024-02-04T01:20:46;1121.85;;;945.00;;
68995;SDS011;56056;48.990;12.146;2024-02-04T01:23:14;1274.03;;;968.72;;
68995;SDS011;56056;48.990;12.146;2024-02-04T01:25:42;1104.82;;;966.33;;
68995;SDS011;56056;48.990;12.146;2024-02-04T01:28:08;105.68;;;96.53;;
68995;SDS011;56056;48.990;12.146;2024-02-04T01:30:33;1173.40;;;964.75;;
68995;SDS011;56056;48.990;12.146;2024-02-04T01:32:59;1014.50;;;904.90;;
68995;SDS011;56056;48.990;12.146;2024-02-04T01:35:25;1102.07;;;925.80;;
68995;SDS011;56056;48.990;12.146;2024-02-04T01:37:50;1002.55;;;850.97;;
68995;SDS011;56056;48.990;12.146;2024-02-04T01:40:17;946.35;;;844.05;;
68995;SDS011;56056;48.990;12.146;2024-02-04T01:42:43;1014.83;;;899.55;;
68995;SDS011;56056;48.990;12.146;2024-02-04T01:45:09;1203.47;;;954.35;;
68995;SDS011;56056;48.990;12.146;2024-02-04T01:47:35;863.30;;;748.95;;
68995;SDS011;56056;48.990;12.146;2024-02-04T01:50:01;510.90;;;459.83;;
68995;SDS011;56056;48.990;12.146;2024-02-04T01:52:29;902.40;;;807.22;;
68995;SDS011;56056;48.990;12.146;2024-02-04T01:54:55;940.33;;;845.45;;
68995;SDS011;56056;48.990;12.146;2024-02-04T01:57:22;937.78;;;837.25;;
68995;SDS011;56056;48.990;12.146;2024-02-04T01:59:48;870.60;;;788.25;;
68995;SDS011;56056;48.990;12.146;2024-02-04T02:02:16;856.30;;;774.80;;
68995;SDS011;56056;48.990;12.146;2024-02-04T02:04:42;720.25;;;655.08;;
68995;SDS011;56056;48.990;12.146;2024-02-04T02:07:08;506.20;;;459.75;;
68995;SDS011;56056;48.990;12.146;2024-02-04T02:09:34;555.53;;;508.40;;
68995;SDS011;56056;48.990;12.146;2024-02-04T02:12:01;694.45;;;628.00;;
68995;SDS011;56056;48.990;12.146;2024-02-04T02:14:33;863.92;;;782.78;;
68995;SDS011;56056;48.990;12.146;2024-02-04T02:17:05;461.85;;;416.15;;
68995;SDS011;56056;48.990;12.146;2024-02-04T02:19:35;911.13;;;824.47;;
68995;SDS011;56056;48.990;12.146;2024-02-04T02:22:06;661.38;;;602.72;;
68995;SDS011;56056;48.990;12.146;2024-02-04T02:24:41;779.67;;;706.38;;
68995;SDS011;56056;48.990;12.146;2024-02-04T02:27:07;500.13;;;456.77;;
68995;SDS011;56056;48.990;12.146;2024-02-04T02:29:33;822.22;;;745.25;;
68995;SDS011;56056;48.990;12.146;2024-02-04T02:31:59;543.63;;;494.77;;
68995;SDS011;56056;48.990;12.146;2024-02-04T02:34:25;620.05;;;563.55;;
68995;SDS011;56056;48.990;12.146;2024-02-04T02:36:52;747.22;;;675.83;;
68995;SDS011;56056;48.990;12.146;2024-02-04T02:39:23;868.28;;;783.10;;
68995;SDS011;56056;48.990;12.146;2024-02-04T02:41:53;732.00;;;661.20;;
68995;SDS011;56056;48.990;12.146;2024-02-04T02:44:21;586.65;;;533.35;;
68995;SDS011;56056;48.990;12.146;2024-02-04T02:46:49;552.75;;;504.38;;
68995;SDS011;56056;48.990;12.146;2024-02-04T02:49:14;985.60;;;878.20;;
68995;SDS011;56056;48.990;12.146;2024-02-04T02:51:40;936.88;;;841.15;;
68995;SDS011;56056;48.990;12.146;2024-02-04T02:54:06;902.85;;;794.80;;
68995;SDS011;56056;48.990;12.146;2024-02-04T02:56:31;915.58;;;819.67;;
68995;SDS011;56056;48.990;12.146;2024-02-04T02:58:58;989.30;;;833.05;;
68995;SDS011;56056;48.990;12.146;2024-02-04T03:01:24;855.40;;;770.92;;
68995;SDS011;56056;48.990;12.146;2024-02-04T03:03:50;1020.13;;;885.28;;
68995;SDS011;56056;48.990;12.146;2024-02-04T03:06:15;929.38;;;835.05;;
68995;SDS011;56056;48.990;12.146;2024-02-04T03:08:41;917.05;;;826.83;;
68995;SDS011;56056;48.990;12.146;2024-02-04T03:11:07;974.28;;;866.40;;
68995;SDS011;56056;48.990;12.146;2024-02-04T03:13:32;861.35;;;771.25;;
68995;SDS011;56056;48.990;12.146;2024-02-04T03:15:59;734.10;;;667.60;;
68995;SDS011;56056;48.990;12.146;2024-02-04T03:18:25;686.95;;;624.65;;
68995;SDS011;56056;48.990;12.146;2024-02-04T03:20:51;922.45;;;825.25;;
68995;SDS011;56056;48.990;12.146;2024-02-04T03:23:16;958.03;;;858.10;;
68995;SDS011;56056;48.990;12.146;2024-02-04T03:25:42;639.10;;;581.63;;
68995;SDS011;56056;48.990;12.146;2024-02-04T03:28:08;607.90;;;553.58;;
68995;SDS011;56056;48.990;12.146;2024-02-04T03:30:33;1087.97;;;925.80;;
68995;SDS011;56056;48.990;12.146;2024-02-04T03:33:00;800.85;;;725.20;;
68995;SDS011;56056;48.990;12.146;2024-02-04T03:35:26;854.35;;;764.42;;
68995;SDS011;56056;48.990;12.146;2024-02-04T03:37:51;821.75;;;732.70;;
68995;SDS011;56056;48.990;12.146;2024-02-04T03:40:17;993.83;;;882.88;;
68995;SDS011;56056;48.990;12.146;2024-02-04T03:42:44;875.78;;;761.45;;
68995;SDS011;56056;48.990;12.146;2024-02-04T03:45:10;966.35;;;860.00;;
68995;SDS011;56056;48.990;12.146;2024-02-04T03:47:35;694.80;;;630.20;;
68995;SDS011;56056;48.990;12.146;2024-02-04T03:50:02;1059.55;;;936.88;;
68995;SDS011;56056;48.990;12.146;2024-02-04T03:52:29;983.25;;;877.00;;
68995;SDS011;56056;48.990;12.146;2024-02-04T03:54:54;781.28;;;703.00;;
68995;SDS011;56056;48.990;12.146;2024-02-04T03:57:20;1023.90;;;904.28;;
68995;SDS011;56056;48.990;12.146;2024-02-04T03:59:45;754.63;;;673.78;;
68995;SDS011;56056;48.990;12.146;2024-02-04T04:02:12;982.80;;;867.00;;
68995;SDS011;56056;48.990;12.146;2024-02-04T04:04:39;1065.25;;;918.90;;
68995;SDS011;56056;48.990;12.146;2024-02-04T04:07:07;1019.55;;;909.10;;
68995;SDS011;56056;48.990;12.146;2024-02-04T04:09:33;977.15;;;869.75;;
68995;SDS011;56056;48.990;12.146;2024-02-04T04:11:59;1155.15;;;954.33;;
68995;SDS011;56056;48.990;12.146;2024-02-04T04:14:24;1172.32;;;964.60;;
68995;SDS011;56056;48.990;12.146;2024-02-04T04:16:50;1196.38;;;963.45;;
68995;SDS011;56056;48.990;12.146;2024-02-04T04:19:16;1086.72;;;918.47;;
68995;SDS011;56056;48.990;12.146;2024-02-04T04:21:41;1084.85;;;928.25;;
68995;SDS011;56056;48.990;12.146;2024-02-04T04:24:08;1013.67;;;891.00;;
68995;SDS011;56056;48.990;12.146;2024-02-04T04:26:34;1086.03;;;941.28;;
68995;SDS011;56056;48.990;12.146;2024-02-04T04:28:59;1053.57;;;918.53;;
68995;SDS011;56056;48.990;12.146;2024-02-04T04:31:25;909.22;;;809.90;;
68995;SDS011;56056;48.990;12.146;2024-02-04T04:33:51;1215.28;;;955.42;;
68995;SDS011;56056;48.990;12.146;2024-02-04T04:36:18;1134.60;;;944.83;;
68995;SDS011;56056;48.990;12.146;2024-02-04T04:38:44;1076.80;;;937.72;;
68995;SDS011;56056;48.990;12.146;2024-02-04T04:41:11;1184.53;;;985.70;;
68995;SDS011;56056;48.990;12.146;2024-02-04T04:43:36;1127.22;;;981.55;;
68995;SDS011;56056;48.990;12.146;2024-02-04T04:46:03;1280.05;;;999.90;;
68995;SDS011;56056;48.990;12.146;2024-02-04T04:48:29;1268.45;;;993.25;;
68995;SDS011;56056;48.990;12.146;2024-02-04T04:50:54;1161.80;;;959.75;;
68995;SDS011;56056;48.990;12.146;2024-02-04T04:53:20;949.58;;;847.58;;
68995;SDS011;56056;48.990;12.146;2024-02-04T04:55:46;1038.53;;;914.45;;
68995;SDS011;56056;48.990;12.146;2024-02-04T04:58:13;513.40;;;461.65;;
68995;SDS011;56056;48.990;12.146;2024-02-04T05:00:38;1114.85;;;920.40;;
68995;SDS011;56056;48.990;12.146;2024-02-04T05:03:04;1141.47;;;940.10;;
68995;SDS011;56056;48.990;12.146;2024-02-04T05:05:30;1291.68;;;999.90;;
68995;SDS011;56056;48.990;12.146;2024-02-04T05:07:55;1300.57;;;999.90;;
68995;SDS011;56056;48.990;12.146;2024-02-04T05:10:21;1335.53;;;999.90;;
68995;SDS011;56056;48.990;12.146;2024-02-04T05:12:47;1103.05;;;944.38;;
68995;SDS011;56056;48.990;12.146;2024-02-04T05:15:14;1113.20;;;886.05;;
68995;SDS011;56056;48.990;12.146;2024-02-04T05:17:39;1018.40;;;909.05;;
68995;SDS011;56056;48.990;12.146;2024-02-04T05:20:05;1466.57;;;999.90;;
68995;SDS011;56056;48.990;12.146;2024-02-04T05:22:32;1336.90;;;999.90;;
68995;SDS011;56056;48.990;12.146;2024-02-04T05:24:58;1422.63;;;999.90;;
68995;SDS011;56056;48.990;12.146;2024-02-04T05:27:24;1101.57;;;891.58;;
68995;SDS011;56056;48.990;12.146;2024-02-04T05:29:49;1177.65;;;985.72;;
68995;SDS011;56056;48.990;12.146;2024-02-04T05:32:16;1144.85;;;880.60;;
68995;SDS011;56056;48.990;12.146;2024-02-04T05:34:42;1277.10;;;986.17;;
68995;SDS011;56056;48.990;12.146;2024-02-04T05:37:08;1053.32;;;876.03;;
68995;SDS011;56056;48.990;12.146;2024-02-04T05:39:33;1234.93;;;949.63;;
68995;SDS011;56056;48.990;12.146;2024-02-04T05:41:59;1272.43;;;999.90;;
68995;SDS011;56056;48.990;12.146;2024-02-04T05:44:25;1269.93;;;979.97;;
68995;SDS011;56056;48.990;12.146;2024-02-04T05:46:50;970.13;;;833.60;;
68995;SDS011;56056;48.990;12.146;2024-02-04T05:49:17;1249.88;;;986.13;;
68995;SDS011;56056;48.990;12.146;2024-02-04T05:51:43;1346.60;;;999.90;;
68995;SDS011;56056;48.990;12.146;2024-02-04T05:54:08;1141.05;;;940.63;;
68995;SDS011;56056;48.990;12.146;2024-02-04T05:56:34;1331.57;;;999.90;;
68995;SDS011;56056;48.990;12.146;2024-02-04T05:59:00;1389.90;;;999.90;;
68995;SDS011;56056;48.990;12.146;2024-02-04T06:01:26;117.57;;;107.95;;
68995;SDS011;56056;48.990;12.146;2024-02-04T06:03:51;1144.45;;;911.40;;
68995;SDS011;56056;48.990;12.146;2024-02-04T06:06:18;1276.43;;;999.90;;
68995;SDS011;56056;48.990;12.146;2024-02-04T06:08:45;1036.88;;;911.65;;
68995;SDS011;56056;48.990;12.146;2024-02-04T06:11:11;1309.10;;;999.90;;
68995;SDS011;56056;48.990;12.146;2024-02-04T06:13:38;990.72;;;857.03;;
68995;SDS011;56056;48.990;12.146;2024-02-04T06:16:04;1331.53;;;999.90;;
68995;SDS011;56056;48.990;12.146;2024-02-04T06:18:30;990.67;;;881.75;;
68995;SDS011;56056;48.990;12.146;2024-02-04T06:20:56;1461.82;;;999.90;;
68995;SDS011;56056;48.990;12.146;2024-02-04T06:23:23;1680.88;;;999.90;;
68995;SDS011;56056;48.990;12.146;2024-02-04T06:25:48;1176.28;;;947.70;;
68995;SDS011;56056;48.990;12.146;2024-02-04T06:28:14;1137.00;;;948.60;;
68995;SDS011;56056;48.990;12.146;2024-02-04T06:30:40;536.13;;;458.98;;
68995;SDS011;56056;48.990;12.146;2024-02-04T06:33:05;664.97;;;598.58;;
68995;SDS011;56056;48.990;12.146;2024-02-04T06:35:31;1032.60;;;836.05;;
68995;SDS011;56056;48.990;12.146;2024-02-04T06:37:57;1028.53;;;829.55;;
68995;SDS011;56056;48.990;12.146;2024-02-04T06:40:24;1679.50;;;999.90;;
68995;SDS011;56056;48.990;12.146;2024-02-04T06:42:49;1250.90;;;999.90;;
68995;SDS011;56056;48.990;12.146;2024-02-04T06:45:15;1685.57;;;999.90;;
68995;SDS011;56056;48.990;12.146;2024-02-04T06:47:42;1574.28;;;999.90;;
68995;SDS011;56056;48.990;12.146;2024-02-04T06:50:08;1706.07;;;999.90;;
68995;SDS011;56056;48.990;12.146;2024-02-04T06:52:38;1809.18;;;999.90;;
68995;SDS011;56056;48.990;12.146;2024-02-04T06:55:04;1533.55;;;999.90;;
68995;SDS011;56056;48.990;12.146;2024-02-04T06:57:32;1683.90;;;999.90;;
68995;SDS011;56056;48.990;12.146;2024-02-04T06:59:57;1495.25;;;999.90;;
68995;SDS011;56056;48.990;12.146;2024-02-04T07:02:23;1109.38;;;906.08;;
68995;SDS011;56056;48.990;12.146;2024-02-04T07:04:49;1999.53;;;999.90;;
68995;SDS011;56056;48.990;12.146;2024-02-04T07:07:14;1922.90;;;999.90;;
68995;SDS011;56056;48.990;12.146;2024-02-04T07:09:40;1999.90;;;999.90;;
68995;SDS011;56056;48.990;12.146;2024-02-04T07:12:05;1734.50;;;999.90;;
68995;SDS011;56056;48.990;12.146;2024-02-04T07:14:33;1999.90;;;999.90;;
68995;SDS011;56056;48.990;12.146;2024-02-04T07:16:58;1698.82;;;999.90;;
68995;SDS011;56056;48.990;12.146;2024-02-04T07:19:24;1487.03;;;999.90;;
68995;SDS011;56056;48.990;12.146;2024-02-04T07:21:50;1402.85;;;830.35;;
68995;SDS011;56056;48.990;12.146;2024-02-04T07:24:15;1159.38;;;826.50;;
68995;SDS011;56056;48.990;12.146;2024-02-04T07:26:41;1378.00;;;999.90;;
68995;SDS011;56056;48.990;12.146;2024-02-04T07:29:07;1722.55;;;999.90;;
68995;SDS011;56056;48.990;12.146;2024-02-04T07:31:34;1590.80;;;999.90;;
68995;SDS011;56056;48.990;12.146;2024-02-04T07:34:02;1647.95;;;999.90;;
68995;SDS011;56056;48.990;12.146;2024-02-04T07:36:28;1854.63;;;999.90;;
68995;SDS011;56056;48.990;12.146;2024-02-04T07:38:53;1771.32;;;999.90;;
68995;SDS011;56056;48.990;12.146;2024-02-04T07:41:19;1721.80;;;999.90;;
68995;SDS011;56056;48.990;12.146;2024-02-04T07:43:45;1803.43;;;999.90;;
68995;SDS011;56056;48.990;12.146;2024-02-04T07:46:11;1235.88;;;924.83;;
68995;SDS011;56056;48.990;12.146;2024-02-04T07:48:38;1318.00;;;864.28;;
68995;SDS011;56056;48.990;12.146;2024-02-04T07:51:03;886.72;;;687.75;;
68995;SDS011;56056;48.990;12.146;2024-02-04T07:53:29;1363.07;;;990.63;;
68995;SDS011;56056;48.990;12.146;2024-02-04T07:55:55;1535.20;;;999.90;;
68995;SDS011;56056;48.990;12.146;2024-02-04T07:58:20;1492.38;;;969.03;;
68995;SDS011;56056;48.990;12.146;2024-02-04T08:00:46;1829.45;;;999.90;;
68995;SDS011;56056;48.990;12.146;2024-02-04T08:03:12;893.33;;;659.00;;
68995;SDS011;56056;48.990;12.146;2024-02-04T08:05:39;1427.10;;;979.47;;
68995;SDS011;56056;48.990;12.146;2024-02-04T08:08:05;1133.88;;;694.90;;
68995;SDS011;56056;48.990;12.146;2024-02-04T08:10:30;1684.30;;;999.90;;
68995;SDS011;56056;48.990;12.146;2024-02-04T08:12:56;1716.60;;;999.90;;
68995;SDS011;56056;48.990;12.146;2024-02-04T08:15:22;1518.57;;;999.90;;
68995;SDS011;56056;48.990;12.146;2024-02-04T08:17:47;1551.07;;;999.90;;
68995;SDS011;56056;48.990;12.146;2024-02-04T08:20:13;1333.75;;;999.90;;
68995;SDS011;56056;48.990;12.146;2024-02-04T08:22:40;1188.25;;;887.13;;
68995;SDS011;56056;48.990;12.146;2024-02-04T08:25:06;1280.05;;;949.00;;
68995;SDS011;56056;48.990;12.146;2024-02-04T08:27:32;820.85;;;656.90;;
68995;SDS011;56056;48.990;12.146;2024-02-04T08:29:57;874.70;;;722.55;;
68995;SDS011;56056;48.990;12.146;2024-02-04T08:32:24;1245.97;;;994.65;;
68995;SDS011;56056;48.990;12.146;2024-02-04T08:34:49;935.92;;;831.13;;
68995;SDS011;56056;48.990;12.146;2024-02-04T08:37:15;902.85;;;805.22;;
68995;SDS011;56056;48.990;12.146;2024-02-04T08:39:42;775.83;;;703.33;;
68995;SDS011;56056;48.990;12.146;2024-02-04T08:42:08;663.60;;;601.97;;
68995;SDS011;56056;48.990;12.146;2024-02-04T08:44:33;303.65;;;278.42;;
68995;SDS011;56056;48.990;12.146;2024-02-04T08:46:59;730.60;;;657.88;;
68995;SDS011;56056;48.990;12.146;2024-02-04T08:49:25;546.85;;;496.52;;
68995;SDS011;56056;48.990;12.146;2024-02-04T08:51:50;403.40;;;367.52;;
68995;SDS011;56056;48.990;12.146;2024-02-04T08:54:16;518.88;;;479.85;;
68995;SDS011;56056;48.990;12.146;2024-02-04T08:56:44;644.22;;;600.72;;
68995;SDS011;56056;48.990;12.146;2024-02-04T08:59:09;943.38;;;873.08;;
68995;SDS011;56056;48.990;12.146;2024-02-04T09:01:35;1150.90;;;999.90;;
68995;SDS011;56056;48.990;12.146;2024-02-04T09:04:02;1069.90;;;980.60;;
68995;SDS011;56056;48.990;12.146;2024-02-04T09:06:27;1180.68;;;999.90;;
68995;SDS011;56056;48.990;12.146;2024-02-04T09:08:53;1150.13;;;999.90;;
68995;SDS011;56056;48.990;12.146;2024-02-04T09:11:19;1218.28;;;999.90;;
68995;SDS011;56056;48.990;12.146;2024-02-04T09:13:47;1144.22;;;999.90;;
68995;SDS011;56056;48.990;12.146;2024-02-04T09:16:12;1238.57;;;999.90;;
68995;SDS011;56056;48.990;12.146;2024-02-04T09:18:38;1116.55;;;999.90;;
68995;SDS011;56056;48.990;12.146;2024-02-04T09:21:04;1182.75;;;999.90;;
68995;SDS011;56056;48.990;12.146;2024-02-04T09:23:30;1053.80;;;960.25;;
68995;SDS011;56056;48.990;12.146;2024-02-04T09:25:55;1017.40;;;932.70;;
68995;SDS011;56056;48.990;12.146;2024-02-04T09:28:21;1103.38;;;999.90;;
68995;SDS011;56056;48.990;12.146;2024-02-04T09:30:48;1049.40;;;958.92;;
68995;SDS011;56056;48.990;12.146;2024-02-04T09:33:14;977.38;;;897.28;;
68995;SDS011;56056;48.990;12.146;2024-02-04T09:35:39;853.03;;;783.03;;
68995;SDS011;56056;48.990;12.146;2024-02-04T09:38:05;357.95;;;335.38;;
68995;SDS011;56056;48.990;12.146;2024-02-04T09:40:31;648.90;;;598.85;;
68995;SDS011;56056;48.990;12.146;2024-02-04T09:42:57;781.58;;;721.05;;
68995;SDS011;56056;48.990;12.146;2024-02-04T09:45:23;768.28;;;705.03;;
68995;SDS011;56056;48.990;12.146;2024-02-04T09:47:51;837.72;;;770.22;;
68995;SDS011;56056;48.990;12.146;2024-02-04T09:50:19;745.95;;;688.05;;
68995;SDS011;56056;48.990;12.146;2024-02-04T09:52:46;794.97;;;731.03;;
68995;SDS011;56056;48.990;12.146;2024-02-04T09:55:14;650.75;;;594.83;;
68995;SDS011;56056;48.990;12.146;2024-02-04T09:57:42;696.40;;;641.03;;
68995;SDS011;56056;48.990;12.146;2024-02-04T10:00:08;728.40;;;671.20;;
68995;SDS011;56056;48.990;12.146;2024-02-04T10:02:35;723.38;;;664.45;;
68995;SDS011;56056;48.990;12.146;2024-02-04T10:05:02;633.55;;;582.97;;
68995;SDS011;56056;48.990;12.146;2024-02-04T10:07:29;714.75;;;659.35;;
68995;SDS011;56056;48.990;12.146;2024-02-04T10:09:54;743.50;;;685.20;;
68995;SDS011;56056;48.990;12.146;2024-02-04T10:12:21;789.85;;;729.75;;
68995;SDS011;56056;48.990;12.146;2024-02-04T10:14:47;992.55;;;908.42;;
68995;SDS011;56056;48.990;12.146;2024-02-04T10:17:14;966.97;;;885.25;;
68995;SDS011;56056;48.990;12.146;2024-02-04T10:19:40;874.80;;;803.88;;
68995;SDS011;56056;48.990;12.146;2024-02-04T10:22:07;784.15;;;717.40;;
68995;SDS011;56056;48.990;12.146;2024-02-04T10:24:33;999.17;;;912.67;;
68995;SDS011;56056;48.990;12.146;2024-02-04T10:26:59;961.25;;;878.47;;
68995;SDS011;56056;48.990;12.146;2024-02-04T10:29:25;1025.80;;;939.10;;
68995;SDS011;56056;48.990;12.146;2024-02-04T10:31:52;1001.53;;;917.97;;
68995;SDS011;56056;48.990;12.146;2024-02-04T10:34:18;1106.65;;;999.90;;
68995;SDS011;56056;48.990;12.146;2024-02-04T10:36:45;1064.75;;;970.65;;
68995;SDS011;56056;48.990;12.146;2024-02-04T10:39:12;1079.45;;;983.83;;
68995;SDS011;56056;48.990;12.146;2024-02-04T10:41:39;1177.88;;;999.90;;
68995;SDS011;56056;48.990;12.146;2024-02-04T10:44:09;1197.53;;;999.90;;
68995;SDS011;56056;48.990;12.146;2024-02-04T10:46:36;1231.28;;;999.90;;
68995;SDS011;56056;48.990;12.146;2024-02-04T10:49:04;1188.22;;;999.90;;
68995;SDS011;56056;48.990;12.146;2024-02-04T10:51:33;1228.60;;;999.90;;
68995;SDS011;56056;48.990;12.146;2024-02-04T10:54:00;1133.13;;;999.90;;
68995;SDS011;56056;48.990;12.146;2024-02-04T10:56:30;1086.32;;;988.20;;
68995;SDS011;56056;48.990;12.146;2024-02-04T10:58:59;1220.20;;;999.90;;
68995;SDS011;56056;48.990;12.146;2024-02-04T11:01:27;1206.32;;;999.90;;
68995;SDS011;56056;48.990;12.146;2024-02-04T11:03:53;1148.30;;;999.90;;
68995;SDS011;56056;48.990;12.146;2024-02-04T11:06:20;1109.03;;;999.90;;
68995;SDS011;56056;48.990;12.146;2024-02-04T11:08:46;970.78;;;893.95;;
68995;SDS011;56056;48.990;12.146;2024-02-04T11:11:12;725.15;;;663.30;;
68995;SDS011;56056;48.990;12.146;2024-02-04T11:13:39;1046.32;;;958.63;;
68995;SDS011;56056;48.990;12.146;2024-02-04T11:16:08;810.80;;;744.53;;
68995;SDS011;56056;48.990;12.146;2024-02-04T11:18:42;969.13;;;889.60;;
68995;SDS011;56056;48.990;12.146;2024-02-04T11:21:22;931.80;;;859.08;;
68995;SDS011;56056;48.990;12.146;2024-02-04T11:24:11;938.50;;;859.92;;
68995;SDS011;56056;48.990;12.146;2024-02-04T11:26:43;923.72;;;844.53;;
68995;SDS011;56056;48.990;12.146;2024-02-04T11:29:11;787.83;;;724.78;;
68995;SDS011;56056;48.990;12.146;2024-02-04T11:31:38;1083.78;;;987.45;;
68995;SDS011;56056;48.990;12.146;2024-02-04T11:34:07;816.60;;;752.83;;
68995;SDS011;56056;48.990;12.146;2024-02-04T11:36:37;604.67;;;556.20;;
68995;SDS011;56056;48.990;12.146;2024-02-04T11:39:10;957.13;;;882.00;;
68995;SDS011;56056;48.990;12.146;2024-02-04T11:41:44;931.35;;;858.95;;
68995;SDS011;56056;48.990;12.146;2024-02-04T11:44:12;784.42;;;726.60;;
68995;SDS011;56056;48.990;12.146;2024-02-04T11:46:38;928.15;;;850.88;;
68995;SDS011;56056;48.990;12.146;2024-02-04T11:49:03;825.85;;;764.20;;
68995;SDS011;56056;48.990;12.146;2024-02-04T11:51:39;821.00;;;758.42;;
68995;SDS011;56056;48.990;12.146;2024-02-04T11:54:06;924.17;;;850.33;;
68995;SDS011;56056;48.990;12.146;2024-02-04T11:56:32;926.15;;;849.33;;
68995;SDS011;56056;48.990;12.146;2024-02-04T11:58:58;906.42;;;834.83;;
68995;SDS011;56056;48.990;12.146;2024-02-04T12:01:25;923.08;;;851.08;;
68995;SDS011;56056;48.990;12.146;2024-02-04T12:03:51;772.80;;;714.40;;
68995;SDS011;56056;48.990;12.146;2024-02-04T12:06:17;919.45;;;846.60;;
68995;SDS011;56056;48.990;12.146;2024-02-04T12:08:43;1074.00;;;975.28;;
68995;SDS011;56056;48.990;12.146;2024-02-04T12:11:08;771.83;;;714.47;;
68995;SDS011;56056;48.990;12.146;2024-02-04T12:13:34;977.10;;;892.10;;
68995;SDS011;56056;48.990;12.146;2024-02-04T12:16:04;1058.05;;;957.10;;
68995;SDS011;56056;48.990;12.146;2024-02-04T12:18:33;871.35;;;803.10;;
68995;SDS011;56056;48.990;12.146;2024-02-04T12:20:59;703.35;;;649.72;;
68995;SDS011;56056;48.990;12.146;2024-02-04T12:23:25;837.78;;;772.33;;
68995;SDS011;56056;48.990;12.146;2024-02-04T12:25:51;923.35;;;848.53;;
68995;SDS011;56056;48.990;12.146;2024-02-04T12:28:17;560.45;;;516.70;;
68995;SDS011;56056;48.990;12.146;2024-02-04T12:30:52;861.70;;;794.83;;
68995;SDS011;56056;48.990;12.146;2024-02-04T12:33:18;817.42;;;754.90;;
68995;SDS011;56056;48.990;12.146;2024-02-04T12:35:48;825.30;;;763.63;;
68995;SDS011;56056;48.990;12.146;2024-02-04T12:38:16;825.47;;;763.53;;
68995;SDS011;56056;48.990;12.146;2024-02-04T12:40:42;895.00;;;823.65;;
68995;SDS011;56056;48.990;12.146;2024-02-04T12:43:10;568.13;;;522.17;;
68995;SDS011;56056;48.990;12.146;2024-02-04T12:45:36;854.30;;;788.30;;
68995;SDS011;56056;48.990;12.146;2024-02-04T12:48:02;734.83;;;678.95;;
68995;SDS011;56056;48.990;12.146;2024-02-04T12:50:28;876.63;;;806.70;;
68995;SDS011;56056;48.990;12.146;2024-02-04T12:53:04;892.80;;;822.78;;
68995;SDS011;56056;48.990;12.146;2024-02-04T12:55:32;674.78;;;625.70;;
68995;SDS011;56056;48.990;12.146;2024-02-04T12:58:02;816.03;;;754.33;;
68995;SDS011;56056;48.990;12.146;2024-02-04T13:00:32;391.95;;;362.02;;
68995;SDS011;56056;48.990;12.146;2024-02-04T13:02:58;945.92;;;867.35;;
68995;SDS011;56056;48.990;12.146;2024-02-04T13:05:24;394.90;;;364.50;;
68995;SDS011;56056;48.990;12.146;2024-02-04T13:07:51;411.92;;;376.52;;
68995;SDS011;56056;48.990;12.146;2024-02-04T13:10:19;960.88;;;874.65;;
68995;SDS011;56056;48.990;12.146;2024-02-04T13:12:45;782.58;;;721.25;;
68995;SDS011;56056;48.990;12.146;2024-02-04T13:15:10;873.60;;;801.17;;
68995;SDS011;56056;48.990;12.146;2024-02-04T13:17:36;834.45;;;769.65;;
68995;SDS011;56056;48.990;12.146;2024-02-04T13:20:02;637.40;;;586.38;;
68995;SDS011;56056;48.990;12.146;2024-02-04T13:22:28;856.88;;;788.75;;
68995;SDS011;56056;48.990;12.146;2024-02-04T13:24:54;398.58;;;368.73;;
68995;SDS011;56056;48.990;12.146;2024-02-04T13:27:21;930.38;;;854.67;;
68995;SDS011;56056;48.990;12.146;2024-02-04T13:29:47;859.75;;;793.65;;
68995;SDS011;56056;48.990;12.146;2024-02-04T13:32:13;863.63;;;793.47;;
68995;SDS011;56056;48.990;12.146;2024-02-04T13:34:38;940.95;;;863.78;;